createdAt,value
2018-02-23T00:01:28.196Z,18.35
2018-02-23T00:03:55.629Z,16.90
2018-02-23T00:06:23.050Z,17.83
2018-02-23T00:08:50.504Z,17.42
2018-02-23T00:11:17.965Z,17.15
2018-02-23T00:13:45.446Z,16.37
2018-02-23T00:16:15.210Z,16.48
2018-02-23T00:18:42.791Z,16.85
2018-02-23T00:21:10.970Z,15.93
2018-02-23T00:23:38.408Z,16.55
2018-02-23T00:26:05.847Z,16.42
2018-02-23T00:28:33.286Z,16.12
2018-02-23T00:31:00.730Z,15.70
2018-02-23T00:33:28.164Z,14.30
2018-02-23T00:35:55.586Z,17.52
2018-02-23T00:38:23.037Z,14.82
2018-02-23T00:40:50.479Z,17.80
2018-02-23T00:43:17.907Z,15.95
2018-02-23T00:45:45.338Z,17.37
2018-02-23T00:48:12.779Z,16.33
2018-02-23T00:50:40.198Z,14.98
2018-02-23T00:53:07.644Z,15.50
2018-02-23T00:55:35.089Z,15.98
2018-02-23T00:58:02.537Z,16.02
2018-02-23T01:00:29.965Z,16.33
2018-02-23T01:02:57.383Z,14.85
2018-02-23T01:05:24.865Z,16.15
2018-02-23T01:07:52.254Z,14.98
2018-02-23T01:10:19.699Z,15.48
2018-02-23T01:12:47.127Z,15.55
2018-02-23T01:15:14.550Z,16.37
2018-02-23T01:17:41.995Z,16.02
2018-02-23T01:20:09.420Z,14.95
2018-02-23T01:22:36.842Z,18.10
2018-02-23T01:25:04.296Z,15.57
2018-02-23T01:27:31.724Z,16.70
2018-02-23T01:29:59.150Z,16.60
2018-02-23T01:32:26.603Z,17.23
2018-02-23T01:34:54.033Z,17.20
2018-02-23T01:37:21.463Z,16.52
2018-02-23T01:39:48.902Z,17.05
2018-02-23T01:42:16.327Z,16.00
2018-02-23T01:44:43.762Z,17.70
2018-02-23T01:47:11.211Z,18.00
2018-02-23T01:49:38.647Z,17.10
2018-02-23T01:52:06.066Z,15.60
2018-02-23T01:54:33.517Z,17.20
2018-02-23T01:57:00.969Z,18.25
2018-02-23T01:59:28.393Z,17.98
2018-02-23T02:01:55.828Z,16.52
2018-02-23T02:04:23.271Z,18.17
2018-02-23T02:06:50.706Z,17.23
2018-02-23T02:09:18.156Z,17.90
2018-02-23T02:11:45.583Z,17.75
2018-02-23T02:14:13.015Z,18.98
2018-02-23T02:16:40.456Z,17.75
2018-02-23T02:19:07.887Z,19.10
2018-02-23T02:21:35.331Z,18.08
2018-02-23T02:24:02.766Z,17.30
2018-02-23T02:26:30.195Z,19.50
2018-02-23T02:28:57.635Z,18.50
2018-02-23T02:31:25.070Z,18.40
2018-02-23T02:33:52.528Z,18.75
2018-02-23T02:36:19.959Z,19.42
2018-02-23T02:38:47.388Z,19.17
2018-02-23T02:41:14.836Z,18.55
2018-02-23T02:43:42.287Z,19.20
2018-02-23T02:46:09.716Z,20.80
2018-02-23T02:48:37.169Z,19.67
2018-02-23T02:51:04.601Z,19.60
2018-02-23T02:53:32.049Z,19.55
2018-02-23T02:55:59.479Z,20.70
2018-02-23T02:58:26.931Z,19.25
2018-02-23T03:00:54.375Z,18.90
2018-02-23T03:03:21.804Z,20.15
2018-02-23T03:05:49.241Z,20.55
2018-02-23T03:08:16.675Z,20.77
2018-02-23T03:10:44.112Z,19.23
2018-02-23T03:13:11.556Z,21.58
2018-02-23T03:15:38.988Z,20.12
2018-02-23T03:18:06.419Z,22.17
2018-02-23T03:20:33.864Z,21.80
2018-02-23T03:23:01.287Z,19.77
2018-02-23T03:25:28.735Z,20.02
2018-02-23T03:27:56.167Z,19.95
2018-02-23T03:30:23.600Z,21.65
2018-02-23T03:32:51.038Z,20.00
2018-02-23T03:35:18.470Z,22.25
2018-02-23T03:37:45.899Z,22.23
2018-02-23T03:40:13.331Z,21.52
2018-02-23T03:42:40.762Z,22.58
2018-02-23T03:45:08.320Z,21.85
2018-02-23T03:47:35.747Z,19.83
2018-02-23T03:50:03.183Z,20.67
2018-02-23T03:52:30.626Z,21.87
2018-02-23T03:54:58.064Z,21.45
2018-02-23T03:57:25.500Z,21.73
2018-02-23T03:59:52.940Z,22.58
2018-02-23T04:02:20.376Z,20.80
2018-02-23T04:04:47.823Z,19.65
2018-02-23T04:07:15.255Z,21.15
2018-02-23T04:09:42.687Z,21.98
2018-02-23T04:12:10.141Z,20.55
2018-02-23T04:14:37.572Z,21.95
2018-02-23T04:17:05.002Z,21.62
2018-02-23T04:19:32.447Z,22.08
2018-02-23T04:21:59.874Z,21.48
2018-02-23T04:24:27.304Z,22.58
2018-02-23T04:26:54.739Z,21.02
2018-02-23T04:29:22.175Z,21.30
2018-02-23T04:31:49.612Z,21.62
2018-02-23T04:34:17.051Z,19.75
2018-02-23T04:36:44.483Z,22.70
2018-02-23T04:39:11.915Z,21.77
2018-02-23T04:41:39.350Z,21.37
2018-02-23T04:44:06.780Z,23.08
2018-02-23T04:46:34.219Z,22.75
2018-02-23T04:49:01.648Z,22.13
2018-02-23T04:51:29.075Z,21.90
2018-02-23T04:53:56.520Z,21.83
2018-02-23T04:56:23.956Z,21.45
2018-02-23T04:58:51.400Z,21.02
2018-02-23T05:01:18.831Z,22.55
2018-02-23T05:03:46.260Z,24.73
2018-02-23T05:06:13.694Z,22.87
2018-02-23T05:08:41.128Z,24.70
2018-02-23T05:11:08.568Z,24.42
2018-02-23T05:13:36.011Z,22.08
2018-02-23T05:16:03.440Z,24.37
2018-02-23T05:18:30.876Z,24.00
2018-02-23T05:20:58.311Z,23.58
2018-02-23T05:23:25.739Z,24.52
2018-02-23T05:25:53.172Z,23.87
2018-02-23T05:28:20.607Z,25.45
2018-02-23T05:30:48.036Z,24.70
2018-02-23T05:33:15.483Z,27.75
2018-02-23T05:35:42.903Z,25.37
2018-02-23T05:38:10.335Z,24.95
2018-02-23T05:40:37.783Z,23.87
2018-02-23T05:43:05.215Z,25.30
2018-02-23T05:45:32.651Z,23.00
2018-02-23T05:48:00.089Z,24.10
2018-02-23T05:50:27.527Z,25.62
2018-02-23T05:52:54.964Z,25.00
2018-02-23T05:55:22.405Z,25.83
2018-02-23T05:57:49.839Z,23.25
2018-02-23T06:00:17.283Z,25.27
2018-02-23T06:02:44.783Z,27.13
2018-02-23T06:05:12.239Z,25.00
2018-02-23T06:07:39.672Z,25.52
2018-02-23T06:10:07.098Z,27.27
2018-02-23T06:12:34.539Z,25.92
2018-02-23T06:15:01.972Z,26.50
2018-02-23T06:17:35.080Z,24.87
2018-02-23T06:20:08.488Z,26.90
2018-02-23T06:22:35.927Z,26.58
2018-02-23T06:25:03.377Z,27.52
2018-02-23T06:27:30.813Z,28.25
2018-02-23T06:29:58.255Z,27.48
2018-02-23T06:32:25.649Z,29.63
2018-02-23T06:34:53.111Z,26.83
2018-02-23T06:37:20.552Z,27.48
2018-02-23T06:39:47.984Z,27.87
2018-02-23T06:42:15.424Z,27.40
2018-02-23T06:44:42.896Z,29.10
2018-02-23T06:47:12.060Z,26.87
2018-02-23T06:49:39.504Z,28.73
2018-02-23T06:52:06.935Z,28.40
2018-02-23T06:54:34.386Z,29.10
2018-02-23T06:57:01.820Z,28.55
2018-02-23T06:59:29.243Z,29.20
2018-02-23T07:01:56.697Z,25.98
2018-02-23T07:04:24.138Z,27.25
2018-02-23T07:06:51.572Z,28.62
2018-02-23T07:09:19.014Z,29.25
2018-02-23T07:11:46.455Z,29.70
2018-02-23T07:14:13.886Z,28.87
2018-02-23T07:16:41.324Z,28.95
2018-02-23T07:19:08.759Z,30.15
2018-02-23T07:21:36.192Z,33.03
2018-02-23T07:24:03.634Z,31.90
2018-02-23T07:26:31.064Z,27.15
2018-02-23T07:28:58.487Z,28.67
2018-02-23T07:31:25.927Z,30.23
2018-02-23T07:33:53.359Z,30.17
2018-02-23T07:36:20.804Z,31.17
2018-02-23T07:38:48.238Z,29.37
2018-02-23T07:41:15.667Z,30.48
2018-02-23T07:43:43.116Z,32.58
2018-02-23T07:46:10.534Z,31.77
2018-02-23T07:48:37.979Z,30.30
2018-02-23T07:51:05.423Z,31.27
2018-02-23T07:53:32.850Z,30.23
2018-02-23T07:56:00.296Z,31.37
2018-02-23T07:58:27.739Z,32.13
2018-02-23T08:00:55.168Z,30.15
2018-02-23T08:03:22.595Z,30.48
2018-02-23T08:05:50.044Z,31.20
2018-02-23T08:08:17.475Z,32.67
2018-02-23T08:10:44.899Z,30.55
2018-02-23T08:13:12.331Z,29.00
2018-02-23T08:15:39.771Z,31.90
2018-02-23T08:18:07.216Z,31.90
2018-02-23T08:20:34.644Z,31.20
2018-02-23T08:23:02.079Z,32.22
2018-02-23T08:25:29.520Z,31.85
2018-02-23T08:27:56.939Z,31.83
2018-02-23T08:30:24.379Z,30.58
2018-02-23T08:32:51.812Z,30.25
2018-02-23T08:35:19.246Z,32.78
2018-02-23T08:37:46.696Z,30.17
2018-02-23T08:40:14.123Z,33.67
2018-02-23T08:42:41.555Z,32.08
2018-02-23T08:45:08.978Z,34.38
2018-02-23T08:47:36.417Z,32.00
2018-02-23T08:50:03.859Z,30.85
2018-02-23T08:52:31.278Z,31.73
2018-02-23T08:54:58.712Z,32.67
2018-02-23T08:57:26.156Z,34.20
2018-02-23T08:59:53.583Z,33.78
2018-02-23T09:02:21.040Z,33.15
2018-02-23T09:04:48.484Z,34.35
2018-02-23T09:07:15.951Z,35.17
2018-02-23T09:09:43.356Z,34.95
2018-02-23T09:12:10.783Z,33.90
2018-02-23T09:14:38.211Z,34.45
2018-02-23T09:17:05.664Z,34.30
2018-02-23T09:19:33.111Z,32.45
2018-02-23T09:22:00.560Z,33.55
2018-02-23T09:24:28.006Z,34.05
2018-02-23T09:26:55.440Z,34.08
2018-02-23T09:29:22.884Z,32.35
2018-02-23T09:31:50.321Z,33.88
2018-02-23T09:47:43.543Z,36.92
2018-02-23T09:50:11.049Z,37.80
2018-02-23T09:52:38.423Z,33.25
2018-02-23T09:55:05.868Z,35.88
2018-02-23T09:57:33.303Z,37.45
2018-02-23T10:00:00.734Z,35.97
2018-02-23T10:02:28.271Z,36.70
2018-02-23T10:04:55.702Z,35.67
2018-02-23T10:07:23.126Z,35.95
2018-02-23T10:09:50.595Z,35.85
2018-02-23T10:12:18.055Z,35.78
2018-02-23T10:14:45.508Z,38.10
2018-02-23T10:17:12.943Z,34.40
2018-02-23T10:19:40.365Z,35.28
2018-02-23T10:22:07.838Z,35.42
2018-02-23T10:24:35.286Z,35.28
2018-02-23T10:27:02.720Z,37.90
2018-02-23T10:29:30.306Z,35.75
2018-02-23T10:31:58.020Z,35.15
2018-02-23T10:34:25.533Z,36.22
2018-02-23T10:36:52.967Z,36.38
2018-02-23T10:39:31.412Z,37.30
2018-02-23T10:41:58.967Z,37.03
2018-02-23T10:44:26.387Z,35.05
2018-02-23T10:46:53.844Z,37.47
2018-02-23T10:49:21.287Z,36.20
2018-02-23T10:51:48.757Z,36.53
2018-02-23T10:54:16.207Z,38.15
2018-02-23T10:56:43.630Z,36.10
2018-02-23T10:59:11.074Z,35.05
2018-02-23T11:01:38.511Z,35.90
2018-02-23T11:04:05.948Z,35.30
2018-02-23T11:06:33.383Z,35.15
2018-02-23T11:09:00.832Z,36.47
2018-02-23T11:11:28.254Z,34.20
2018-02-23T11:13:55.696Z,37.15
2018-02-23T11:16:23.138Z,37.92
2018-02-23T11:18:50.604Z,35.65
2018-02-23T11:21:18.059Z,34.63
2018-02-23T11:23:46.423Z,36.15
2018-02-23T11:26:13.900Z,35.72
2018-02-23T11:28:41.343Z,37.05
2018-02-23T11:31:08.779Z,38.10
2018-02-23T11:33:36.215Z,35.35
2018-02-23T11:36:03.655Z,38.45
2018-02-23T11:38:31.092Z,39.03
2018-02-23T11:40:58.543Z,36.67
2018-02-23T11:43:25.971Z,37.30
2018-02-23T11:45:53.404Z,38.60
2018-02-23T11:48:20.850Z,34.17
2018-02-23T11:50:48.341Z,37.65
2018-02-23T11:53:15.776Z,34.50
2018-02-23T11:55:43.227Z,38.00
2018-02-23T11:58:10.659Z,36.67
2018-02-23T12:00:38.139Z,36.80
2018-02-23T12:03:05.575Z,34.63
2018-02-23T12:05:33.006Z,37.20
2018-02-23T12:08:00.451Z,38.30
2018-02-23T12:10:27.913Z,35.38
2018-02-23T12:12:55.355Z,38.78
2018-02-23T12:15:22.822Z,40.12
2018-02-23T12:17:50.256Z,35.80
2018-02-23T12:20:17.743Z,37.13
2018-02-23T12:22:45.187Z,38.25
2018-02-23T12:25:12.618Z,36.22
2018-02-23T12:27:40.071Z,36.58
2018-02-23T12:30:07.512Z,38.75
2018-02-23T12:32:35.004Z,38.90
2018-02-23T12:35:02.448Z,38.60
2018-02-23T12:37:29.878Z,39.90
2018-02-23T12:39:57.320Z,38.03
2018-02-23T12:42:24.772Z,41.15
2018-02-23T12:44:52.208Z,38.00
2018-02-23T12:47:19.656Z,40.70
2018-02-23T12:49:47.104Z,41.10
2018-02-23T12:52:14.581Z,39.28
2018-02-23T12:54:42.404Z,39.08
2018-02-23T12:57:09.827Z,39.88
2018-02-23T12:59:37.260Z,39.63
2018-02-23T13:02:04.691Z,39.55
2018-02-23T13:04:32.902Z,41.78
2018-02-23T13:07:00.386Z,38.97
2018-02-23T13:09:27.829Z,38.42
2018-02-23T13:11:55.271Z,39.10
2018-02-23T13:27:50.280Z,38.03
2018-02-23T13:30:17.712Z,38.08
2018-02-23T13:32:45.151Z,35.22
2018-02-23T13:35:12.587Z,36.05
2018-02-23T13:37:40.013Z,36.08
2018-02-23T13:40:07.452Z,36.25
2018-02-23T13:42:34.885Z,37.28
2018-02-23T13:45:02.329Z,37.30
2018-02-23T13:47:29.779Z,37.45
2018-02-23T13:49:57.205Z,36.55
2018-02-23T13:52:24.649Z,36.40
2018-02-23T13:54:53.007Z,35.90
2018-02-23T13:57:20.455Z,37.65
2018-02-23T13:59:47.931Z,37.72
2018-02-23T14:02:15.571Z,35.42
2018-02-23T14:04:43.020Z,36.60
2018-02-23T14:07:16.128Z,36.75
2018-02-23T14:09:43.767Z,36.45
2018-02-23T14:12:14.715Z,36.22
2018-02-23T14:14:42.155Z,35.60
2018-02-23T14:17:09.610Z,35.70
2018-02-23T14:19:37.064Z,35.35
2018-02-23T14:22:04.509Z,35.35
2018-02-23T14:24:31.932Z,36.17
2018-02-23T14:26:59.371Z,35.72
2018-02-23T14:29:26.803Z,36.75
2018-02-23T14:31:54.239Z,34.83
2018-02-23T14:34:21.673Z,37.05
2018-02-23T14:36:49.594Z,37.20
2018-02-23T14:39:17.067Z,36.67
2018-02-23T14:41:44.496Z,34.83
2018-02-23T14:44:11.927Z,37.35
2018-02-23T14:46:39.398Z,37.10
2018-02-23T14:49:18.596Z,36.45
2018-02-23T14:51:46.042Z,35.78
2018-02-23T14:54:13.481Z,36.22
2018-02-23T14:56:40.927Z,38.28
2018-02-23T14:59:08.377Z,38.25
2018-02-23T15:01:39.962Z,37.47
2018-02-23T15:04:07.412Z,36.95
2018-02-23T15:06:34.848Z,39.88
2018-02-23T15:09:02.294Z,38.33
2018-02-23T15:11:29.742Z,39.17
2018-02-23T15:13:57.337Z,36.90
2018-02-23T15:16:24.787Z,37.28
2018-02-23T15:18:52.218Z,38.10
2018-02-23T15:21:19.680Z,37.33
2018-02-23T15:23:47.118Z,37.10
2018-02-23T15:26:14.539Z,36.78
2018-02-23T15:28:41.990Z,39.85
2018-02-23T15:31:21.236Z,38.25
2018-02-23T15:33:48.683Z,37.40
2018-02-23T15:36:16.148Z,38.22
2018-02-23T15:38:43.571Z,37.08
2018-02-23T15:41:11.018Z,37.45
2018-02-23T15:43:38.470Z,38.30
2018-02-23T15:46:05.913Z,38.60
2018-02-23T15:48:38.911Z,38.20
2018-02-23T15:51:08.728Z,37.17
2018-02-23T15:53:36.155Z,38.28
2018-02-23T15:56:03.598Z,38.17
2018-02-23T15:58:31.947Z,37.72
2018-02-23T16:00:59.408Z,38.00
2018-02-23T16:03:26.840Z,36.22
2018-02-23T16:05:54.270Z,36.97
2018-02-23T16:08:21.720Z,38.17
2018-02-23T16:10:49.150Z,37.05
2018-02-23T16:13:16.567Z,37.60
2018-02-23T16:15:44.013Z,37.30
2018-02-23T16:18:11.466Z,36.97
2018-02-23T16:20:38.919Z,36.42
2018-02-23T16:23:06.376Z,36.70
2018-02-23T16:25:33.805Z,38.28
2018-02-23T16:28:01.256Z,35.85
2018-02-23T16:30:29.556Z,34.90
2018-02-23T16:32:57.023Z,36.70
2018-02-23T16:35:24.472Z,36.28
2018-02-23T16:37:51.918Z,36.15
2018-02-23T16:40:19.358Z,37.63
2018-02-23T16:42:46.817Z,36.15
2018-02-23T16:45:14.253Z,37.45
2018-02-23T16:47:41.679Z,34.55
2018-02-23T16:50:09.125Z,36.90
2018-02-23T16:52:36.551Z,36.50
2018-02-23T16:55:04.771Z,36.22
2018-02-23T16:57:32.225Z,36.50
2018-02-23T16:59:59.900Z,36.40
2018-02-23T17:02:27.339Z,35.67
2018-02-23T17:04:54.783Z,36.40
2018-02-23T17:07:22.220Z,35.63
2018-02-23T17:09:49.668Z,36.50
2018-02-23T17:12:17.110Z,34.90
2018-02-23T17:14:44.549Z,35.15
2018-02-23T17:17:11.950Z,36.83
2018-02-23T17:19:39.431Z,36.28
2018-02-23T17:22:06.885Z,36.22
2018-02-23T17:24:34.310Z,37.65
2018-02-23T17:27:01.851Z,35.30
2018-02-23T17:29:29.300Z,37.75
2018-02-23T17:31:56.807Z,37.28
2018-02-23T17:34:24.181Z,38.67
2018-02-23T17:36:51.602Z,37.58
2018-02-23T17:39:19.102Z,37.50
2018-02-23T17:41:46.536Z,35.90
2018-02-23T17:44:14.028Z,36.25
2018-02-23T17:46:41.418Z,36.45
2018-02-23T17:49:08.854Z,38.90
2018-02-23T17:51:36.309Z,36.83
2018-02-23T17:54:03.752Z,33.72
2018-02-23T17:56:31.184Z,35.33
2018-02-23T17:58:58.627Z,37.13
2018-02-23T18:01:26.068Z,36.50
2018-02-23T18:03:53.511Z,33.35
2018-02-23T18:06:20.939Z,34.90
2018-02-23T18:08:48.363Z,35.22
2018-02-23T18:11:15.811Z,36.95
2018-02-23T18:13:43.271Z,35.15
2018-02-23T18:16:10.668Z,36.67
2018-02-23T18:18:38.107Z,36.88
2018-02-23T18:21:05.543Z,35.72
2018-02-23T18:23:32.975Z,36.78
2018-02-23T18:26:00.412Z,37.08
2018-02-23T18:28:27.839Z,36.60
2018-02-23T18:30:55.283Z,36.17
2018-02-23T18:33:22.731Z,35.55
2018-02-23T18:35:50.170Z,34.45
2018-02-23T18:38:17.627Z,37.35
2018-02-23T18:40:45.046Z,36.97
2018-02-23T18:43:12.491Z,35.63
2018-02-23T18:45:39.924Z,34.65
2018-02-23T18:48:07.355Z,34.95
2018-02-23T18:50:34.798Z,35.40
2018-02-23T18:53:02.233Z,36.17
2018-02-23T18:55:29.654Z,35.05
2018-02-23T18:57:57.114Z,34.78
2018-02-23T19:00:24.548Z,34.42
2018-02-23T19:02:51.988Z,35.17
2018-02-23T19:05:19.426Z,34.78
2018-02-23T19:07:46.884Z,34.92
2018-02-23T19:10:14.311Z,35.58
2018-02-23T19:12:41.746Z,35.60
2018-02-23T19:15:09.188Z,36.30
2018-02-23T19:17:36.665Z,34.47
2018-02-23T19:20:04.104Z,36.25
2018-02-23T19:22:31.530Z,35.75
2018-02-23T19:24:58.963Z,37.55
2018-02-23T19:27:26.397Z,33.85
2018-02-23T19:29:53.829Z,33.83
2018-02-23T19:32:21.263Z,35.10
2018-02-23T19:34:48.707Z,35.92
2018-02-23T19:37:16.131Z,34.55
2018-02-23T19:39:43.639Z,34.35
2018-02-23T19:42:11.100Z,36.30
2018-02-23T19:44:38.537Z,36.13
2018-02-23T19:47:05.985Z,35.45
2018-02-23T19:49:33.454Z,35.85
2018-02-23T19:52:00.892Z,38.05
2018-02-23T19:54:28.396Z,35.72
2018-02-23T19:56:55.855Z,36.30
2018-02-23T19:59:23.319Z,36.95
2018-02-23T20:01:50.838Z,37.55
2018-02-23T20:04:18.293Z,35.50
2018-02-23T20:06:45.814Z,35.95
2018-02-23T20:09:13.291Z,34.97
2018-02-23T20:11:40.796Z,36.65
2018-02-23T20:14:08.240Z,36.47
2018-02-23T20:16:35.731Z,34.45
2018-02-23T20:19:03.207Z,37.60
2018-02-23T20:21:30.635Z,34.28
2018-02-23T20:23:58.097Z,36.63
2018-02-23T20:26:25.570Z,37.25
2018-02-23T20:28:53.071Z,38.42
2018-02-23T20:31:20.581Z,38.78
2018-02-23T20:33:48.149Z,37.85
2018-02-23T20:36:15.660Z,39.15
2018-02-23T20:38:43.104Z,39.15
2018-02-23T20:41:10.548Z,39.20
2018-02-23T20:43:38.105Z,39.97
2018-02-23T20:46:05.639Z,42.58
2018-02-23T20:48:33.218Z,40.15
2018-02-23T20:51:01.066Z,41.05
2018-02-23T20:53:28.608Z,38.95
2018-02-23T20:55:56.061Z,38.75
2018-02-23T20:58:23.610Z,39.03
2018-02-23T21:00:51.335Z,37.85
2018-02-23T21:03:18.890Z,40.47
2018-02-23T21:05:46.365Z,40.30
2018-02-23T21:08:13.873Z,42.03
2018-02-23T21:10:41.369Z,40.30
2018-02-23T21:13:09.986Z,40.95
2018-02-23T21:15:37.462Z,39.85
2018-02-23T21:18:04.925Z,42.00
2018-02-23T21:20:32.399Z,40.25
2018-02-23T21:22:59.849Z,39.30
2018-02-23T21:25:27.291Z,41.42
2018-02-23T21:27:54.748Z,41.35
2018-02-23T21:30:22.191Z,41.92
2018-02-23T21:32:49.623Z,41.28
2018-02-23T21:35:17.085Z,41.97
2018-02-23T21:37:44.529Z,41.45
2018-02-23T21:40:11.978Z,39.22
2018-02-23T21:42:39.437Z,43.35
2018-02-23T21:45:06.867Z,43.58
2018-02-23T21:47:34.343Z,39.55
2018-02-23T21:50:01.777Z,43.30
2018-02-23T21:52:29.212Z,40.25
2018-02-23T21:54:56.663Z,42.38
2018-02-23T21:57:24.119Z,40.85
2018-02-23T21:59:51.565Z,41.72
2018-02-23T22:02:18.999Z,41.90
2018-02-23T22:04:46.457Z,44.70
2018-02-23T22:07:13.887Z,44.25
2018-02-23T22:09:41.468Z,41.78
2018-02-23T22:12:08.877Z,41.88
2018-02-23T22:14:36.327Z,40.25
2018-02-23T22:17:03.770Z,42.75
2018-02-23T22:19:31.215Z,41.90
2018-02-23T22:21:58.647Z,43.85
2018-02-23T22:24:26.095Z,43.80
2018-02-23T22:26:53.540Z,43.20
2018-02-23T22:29:20.975Z,38.35
2018-02-23T22:31:48.427Z,40.42
2018-02-23T22:34:15.875Z,43.67
2018-02-23T22:36:43.317Z,42.80
2018-02-23T22:39:10.764Z,40.90
2018-02-23T22:41:38.192Z,41.47
2018-02-23T22:44:05.632Z,41.42
2018-02-23T22:46:33.084Z,43.33
2018-02-23T22:49:00.552Z,43.20
2018-02-23T22:51:28.013Z,42.00
2018-02-23T22:53:55.462Z,41.88
2018-02-23T22:56:22.888Z,42.60
2018-02-23T22:58:50.331Z,41.45
2018-02-23T23:01:17.767Z,41.75
2018-02-23T23:03:45.248Z,41.67
2018-02-23T23:06:12.712Z,43.55
2018-02-23T23:08:40.111Z,44.28
2018-02-23T23:11:07.583Z,45.03
2018-02-23T23:13:35.011Z,41.90
2018-02-23T23:16:02.473Z,42.78
2018-02-23T23:18:29.907Z,42.80
2018-02-23T23:20:57.344Z,43.33
2018-02-23T23:23:24.787Z,42.80
2018-02-23T23:25:52.289Z,41.67
2018-02-23T23:28:19.664Z,43.25
2018-02-23T23:30:47.107Z,41.13
2018-02-23T23:33:14.540Z,43.65
2018-02-23T23:35:41.971Z,42.42
2018-02-23T23:38:09.417Z,41.67
2018-02-23T23:40:36.855Z,44.40
2018-02-23T23:43:04.309Z,42.03
2018-02-23T23:45:31.739Z,42.30
2018-02-23T23:48:01.206Z,43.72
2018-02-23T23:50:28.656Z,42.33
2018-02-23T23:52:56.104Z,41.55
2018-02-23T23:55:23.563Z,40.85
2018-02-23T23:57:51.007Z,42.05
